Terminal Aerodrome Forecast
Issued by NWS

Current Version | Previous Version | Text Only | Print | Product List | Glossary Off
Versions: 1 2 3 4 5 6 7 8 9 10 11 12 13 14 15 16 17 18 19 20 21 22 23 24 25 26 27

000
FTUS41 KILN 030918 AAB
TAFLUK
TAF AMD
KLUK 030918Z 0309/0406 04010G20KT P6SM VCSH BKN060
      TEMPO 0310/0311 4SM TSRA BKN025CB
     FM031400 23012KT P6SM BKN040
     FM031900 25012G20KT P6SM VCTS BKN040CB
     FM032300 29012KT P6SM BKN050
     FM040100 32008KT P6SM SCT050=

USA.gov is the U.S. government's official web portal to all federal, state and local government web resources and services.